Airfield :







YOU CAN JOIN US ON...

 
LOGIN :

Register | Disclaimer

   EN    FR    IT 

 









Legend :    VFR   Marginal VFR   IFR   Intensive IFR   Very Intensive IFR
Visi :
Ceiling :
>= 8 km
>= 3000ft
5 to 8 km
1000 to 3000 ft
1500m to 5 km
500 to 1000 ft
800 to 1500m
200 to 500 ft
< 800m
< 200 ft
Symbols :   Thunderstorms  Fog  Heavy snow  Heavy precipitations  Wind > 20 kt






- Airport Elevation : 1161 ft


KBML - Berlin Regional

CURRENT METAR :
  • 070958Z AUTO 00000KT 1 3/4SM BR OVC001 05/04 A2993 RMK AO2 T00500039

EXPIRED METARs :
  • 070952Z AUTO 00000KT 6SM BR OVC001 05/04 A2993 RMK AO2 SLP139 T00500039
  • 070938Z AUTO 00000KT 1 3/4SM BR BKN001 06/04 A2993 RMK AO2 VIS 3/4V5 T00560044
  • 070906Z AUTO 00000KT 10SM BKN001 06/05 A2993 RMK AO2 T00610050
  • 070852Z AUTO 00000KT 10SM SCT001 06/05 A2992 RMK AO2 SLP134 T00610050 55002
  • 070823Z AUTO 00000KT 5SM BR BKN001 06/05 A2992 RMK AO2 T00610050
  • 070752Z AUTO 00000KT 9SM FEW002 07/06 A2992 RMK AO2 SLP132 T00720056
  • 070729Z AUTO 00000KT 9SM SCT001 07/06 A2992 RMK AO2 T00720061
  • 070717Z AUTO 00000KT 3SM BR BKN001 07/06 A2993 RMK AO2 T00720061
  • 070708Z AUTO 00000KT 3/4SM BR VV001 07/06 A2993 RMK AO2 T00670056

TAF N/A
KZBW FIR / North America



MET'MAP, your aeronautical weather chart ! - Copyright ORBIFLY December 2007 - Disclaimer

ORBIFLY MET'MAP TEAM :

Programming & Development : Alexandra Zaïnal
Original concept : Baudouin d'Aumeries
Technical & hardware support : Manuel Goepfert
Assistance : Marc-Olivier Méhu




SOURCES & CREDITS :

   NOAA